Time;durP1;ratioP1;P1;durP2;ratioP2;P2;SDS_P1;SDS_P2;PMS_P1;PMS_P2;Temp;Humidity;BMP_temperature;BMP_pressure;BME280_temperature;BME280_humidity;BME280_pressure;Samples;Min_cycle;Max_cycle;Signal;HPM_P1;HPM_P2
2023/03/03 00:00:39;;;;;;;27.90;15.13;;;;;;;4.35;74.77;102315.44;5034446;28;20116;-66
2023/03/03 00:03:07;;;;;;;28.17;15.15;;;;;;;4.35;75.73;102316.34;5015551;28;20064;-66
2023/03/03 00:05:36;;;;;;;27.55;15.02;;;;;;;4.17;76.90;102323.09;5034444;28;20155;-66
2023/03/03 00:08:02;;;;;;;27.25;15.45;;;;;;;4.05;77.69;102312.78;5034705;28;20040;-66
2023/03/03 00:10:28;;;;;;;27.05;15.63;;;;;;;3.99;76.85;102318.56;5034437;28;20025;-66
2023/03/03 00:12:53;;;;;;;28.98;16.05;;;;;;;3.96;77.84;102320.97;5034625;28;20048;-66
2023/03/03 00:15:22;;;;;;;30.20;15.35;;;;;;;3.93;77.73;102327.72;5034110;28;20017;-65
2023/03/03 00:17:47;;;;;;;29.58;15.90;;;;;;;4.01;78.05;102330.00;5034063;28;20025;-66
2023/03/03 00:20:28;;;;;;;27.30;15.50;;;;;;;4.04;77.94;102331.00;5033969;28;20494;-66
2023/03/03 00:22:54;;;;;;;26.15;14.85;;;;;;;4.06;78.25;102334.59;5034128;28;20175;-66
2023/03/03 00:25:29;;;;;;;29.65;15.55;;;;;;;3.98;77.36;102340.28;5034094;28;20091;-66
2023/03/03 00:28:00;;;;;;;27.60;15.38;;;;;;;3.91;78.15;102334.59;5034042;28;20036;-66
2023/03/03 00:30:27;;;;;;;25.80;14.77;;;;;;;3.83;77.80;102328.88;5033968;28;20114;-66
2023/03/03 00:32:54;;;;;;;27.73;15.30;;;;;;;3.81;77.91;102326.97;5034050;28;20037;-66
2023/03/03 00:35:29;;;;;;;28.10;15.65;;;;;;;3.87;78.31;102335.19;5034182;28;20037;-66
2023/03/03 00:38:00;;;;;;;27.20;15.35;;;;;;;3.82;79.08;102331.41;5033734;28;20056;-66
2023/03/03 00:40:34;;;;;;;30.45;16.35;;;;;;;3.72;80.05;102330.81;5034028;28;20044;-66
2023/03/03 00:43:01;;;;;;;27.75;15.43;;;;;;;3.70;80.42;102339.38;5033787;28;20542;-66
2023/03/03 00:45:50;;;;;;;28.05;15.70;;;;;;;3.64;80.50;102344.22;5033667;28;20112;-66
2023/03/03 00:48:21;;;;;;;26.38;14.55;;;;;;;3.67;80.36;102336.56;5015864;28;20037;-66
2023/03/03 00:50:47;;;;;;;26.40;14.95;;;;;;;3.60;80.94;102331.75;5033347;28;20368;-67
2023/03/03 00:53:18;;;;;;;26.77;15.23;;;;;;;3.58;81.25;102339.50;5033676;28;20028;-66
2023/03/03 00:55:45;;;;;;;26.85;14.68;;;;;;;3.62;81.01;102338.91;5033582;28;20029;-66
2023/03/03 00:58:11;;;;;;;32.47;16.45;;;;;;;3.61;81.13;102333.59;5033782;28;20017;-66
2023/03/03 01:00:37;;;;;;;25.50;14.65;;;;;;;3.68;81.04;102341.91;5033750;28;20047;-66
2023/03/03 01:03:17;;;;;;;27.90;15.88;;;;;;;3.70;81.05;102342.00;5033474;28;20554;-66
2023/03/03 01:05:43;;;;;;;30.05;16.13;;;;;;;3.66;80.78;102343.50;5033783;28;20430;-66
2023/03/03 01:08:09;;;;;;;30.20;15.73;;;;;;;3.62;80.98;102340.59;5033514;28;20017;-66
2023/03/03 01:10:39;;;;;;;28.15;15.77;;;;;;;3.62;80.79;102351.97;5033315;28;20057;-66
2023/03/03 01:13:06;;;;;;;28.90;15.48;;;;;;;3.68;80.27;102347.13;5033759;28;20044;-66
2023/03/03 01:15:31;;;;;;;28.90;15.18;;;;;;;3.74;80.31;102357.06;5033181;28;20040;-66
2023/03/03 01:17:57;;;;;;;28.15;14.88;;;;;;;3.62;81.10;102348.44;5033541;28;20476;-65
2023/03/03 01:20:22;;;;;;;25.10;13.70;;;;;;;3.58;80.30;102354.28;5033079;28;20120;-66
2023/03/03 01:22:48;;;;;;;25.75;14.60;;;;;;;3.56;80.62;102355.91;5033448;28;20028;-66
2023/03/03 01:25:13;;;;;;;28.35;15.23;;;;;;;3.46;80.49;102352.69;5033415;28;20369;-66
2023/03/03 01:27:39;;;;;;;25.55;14.38;;;;;;;3.42;81.33;102355.00;5015566;28;20040;-66
2023/03/03 01:30:06;;;;;;;27.90;15.02;;;;;;;3.45;81.25;102356.13;5032966;28;20025;-66
2023/03/03 01:32:32;;;;;;;26.73;13.75;;;;;;;3.53;80.70;102355.72;5033068;28;20033;-65
2023/03/03 01:34:57;;;;;;;25.50;14.70;;;;;;;3.50;80.78;102356.41;5033056;28;20079;-65
2023/03/03 01:37:22;;;;;;;23.98;13.75;;;;;;;3.50;80.65;102359.91;5033096;28;20041;-66
2023/03/03 01:39:57;;;;;;;24.52;13.70;;;;;;;3.57;80.24;102365.56;5032851;28;20057;-66
2023/03/03 01:42:24;;;;;;;26.85;14.30;;;;;;;3.45;79.92;102370.91;5033290;28;20030;-65
2023/03/03 01:45:11;;;;;;;26.35;13.82;;;;;;;3.45;79.95;102378.75;5033068;28;20038;-66
2023/03/03 01:47:37;;;;;;;24.60;12.88;;;;;;;3.37;79.41;102380.84;5033155;28;20029;-66
2023/03/03 01:50:13;;;;;;;29.48;14.40;;;;;;;3.24;79.73;102371.31;5032591;28;20033;-66
2023/03/03 01:52:43;;;;;;;26.85;14.88;;;;;;;3.14;80.33;102376.75;5032864;28;20037;-66
2023/03/03 01:55:17;;;;;;;29.38;14.68;;;;;;;3.12;80.73;102369.63;5032902;28;20048;-65
2023/03/03 01:57:54;;;;;;;27.95;14.77;;;;;;;3.00;80.83;102365.41;5033163;28;20041;-65
2023/03/03 02:00:19;;;;;;;27.45;14.93;;;;;;;3.06;80.45;102369.22;5032973;28;20045;-65
2023/03/03 02:02:45;;;;;;;29.75;14.45;;;;;;;3.08;80.57;102368.50;5033795;28;20041;-65
2023/03/03 02:05:12;;;;;;;28.50;15.02;;;;;;;3.16;80.41;102371.63;5033648;28;20029;-66
2023/03/03 02:07:38;;;;;;;27.20;13.30;;;;;;;3.19;80.56;102361.38;5032934;28;20064;-66
2023/03/03 02:10:03;;;;;;;28.58;14.52;;;;;;;3.25;79.49;102370.53;5032868;28;20464;-65
2023/03/03 02:12:39;;;;;;;27.08;14.50;;;;;;;3.33;79.50;102367.50;5032629;28;20026;-65
2023/03/03 02:15:32;;;;;;;26.02;14.70;;;;;;;3.39;78.85;102370.53;5032926;28;20025;-65
2023/03/03 02:17:59;;;;;;;;;;;;;;;3.48;78.34;102365.88;5032978;28;20044;-66
2023/03/03 02:20:50;;;;;;;27.17;14.05;;;;;;;3.38;78.67;102364.38;5032527;28;19909;-65
2023/03/03 02:23:24;;;;;;;26.60;14.88;;;;;;;3.37;78.36;102369.50;5032959;28;20044;-66
2023/03/03 02:25:56;;;;;;;27.38;13.93;;;;;;;3.39;78.19;102379.25;5033304;28;20034;-65
2023/03/03 02:28:23;;;;;;;;;;;;;;;3.50;78.10;102365.16;5037057;28;20029;-66
2023/03/03 02:30:49;;;;;;;27.17;14.15;;;;;;;3.38;78.46;102372.19;5036149;28;19975;-66
2023/03/03 02:33:14;;;;;;;29.48;14.38;;;;;;;3.31;78.94;102363.91;5036299;28;20029;-65
2023/03/03 02:35:41;;;;;;;29.92;14.40;;;;;;;3.32;78.95;102370.91;5036210;28;20036;-65
2023/03/03 02:38:24;;;;;;;25.83;13.70;;;;;;;3.38;79.10;102364.38;5036126;28;20108;-66
2023/03/03 02:41:08;;;;;;;26.67;13.57;;;;;;;3.33;79.25;102371.00;5036217;28;20087;-66
2023/03/03 02:43:53;;;;;;;29.00;14.60;;;;;;;3.17;79.49;102365.59;5036098;28;20041;-66
2023/03/03 02:46:18;;;;;;;30.33;15.13;;;;;;;3.07;79.99;102366.72;5035967;28;20521;-65
2023/03/03 02:48:44;;;;;;;28.77;14.13;;;;;;;3.07;79.89;102360.59;5036019;28;20064;-65
2023/03/03 02:51:09;;;;;;;28.35;14.45;;;;;;;3.09;80.26;102365.13;5035695;28;20498;-65
2023/03/03 02:53:34;;;;;;;27.83;14.23;;;;;;;3.13;79.95;102363.63;5035907;28;20141;-65
2023/03/03 02:56:00;;;;;;;27.67;14.48;;;;;;;3.10;80.26;102366.03;5035822;28;20033;-65
2023/03/03 02:58:26;;;;;;;28.30;14.63;;;;;;;3.03;80.46;102367.31;5035622;28;20029;-65
2023/03/03 03:00:51;;;;;;;27.35;14.85;;;;;;;2.93;81.26;102375.34;5035700;28;20041;-65
2023/03/03 03:03:16;;;;;;;27.33;14.18;;;;;;;2.88;81.52;102369.84;5035781;28;20037;-65
2023/03/03 03:05:42;;;;;;;29.02;13.73;;;;;;;2.83;81.61;102372.94;5035660;28;20025;-65
2023/03/03 03:08:07;;;;;;;24.00;12.65;;;;;;;2.74;82.12;102376.75;5035869;28;20481;-65
2023/03/03 03:10:35;;;;;;;24.55;12.40;;;;;;;2.77;82.16;102373.41;5035476;28;20104;-65
2023/03/03 03:13:00;;;;;;;25.77;13.18;;;;;;;2.86;81.95;102375.75;5035677;28;20029;-65
2023/03/03 03:15:26;;;;;;;23.35;11.95;;;;;;;2.94;81.40;102375.44;5035596;28;20084;-65
2023/03/03 03:17:51;;;;;;;23.58;12.40;;;;;;;3.01;80.53;102384.59;5035524;28;20439;-66
2023/03/03 03:20:17;;;;;;;23.52;13.05;;;;;;;3.03;80.89;102375.13;5035489;28;20040;-65
2023/03/03 03:22:42;;;;;;;24.58;12.48;;;;;;;3.04;80.87;102376.03;5035367;28;20375;-65
2023/03/03 03:25:08;;;;;;;23.85;12.65;;;;;;;3.03;80.46;102382.97;5035590;28;20025;-65
2023/03/03 03:27:33;;;;;;;24.33;12.82;;;;;;;3.06;80.84;102385.81;5017526;28;20391;-66
2023/03/03 03:29:58;;;;;;;24.98;13.27;;;;;;;3.08;80.74;102381.56;5034991;28;20021;-65
2023/03/03 03:32:24;;;;;;;28.00;13.60;;;;;;;3.12;80.59;102383.56;5035234;28;20049;-66
2023/03/03 03:34:49;;;;;;;23.80;12.38;;;;;;;3.10;81.09;102382.59;5035158;28;20550;-65
2023/03/03 03:37:15;;;;;;;25.10;13.35;;;;;;;3.03;81.03;102382.06;5034980;28;20022;-65
2023/03/03 03:39:40;;;;;;;27.20;13.55;;;;;;;3.00;81.53;102381.09;5034851;28;20060;-65
2023/03/03 03:42:06;;;;;;;25.33;13.75;;;;;;;2.98;81.84;102385.28;5035261;28;20514;-65
2023/03/03 03:44:31;;;;;;;24.38;12.88;;;;;;;3.04;82.01;102386.50;5034768;28;20030;-65
2023/03/03 03:46:56;;;;;;;25.70;13.35;;;;;;;2.99;81.77;102376.63;5034728;28;20021;-65
2023/03/03 03:49:22;;;;;;;27.08;14.25;;;;;;;2.94;81.70;102385.88;5035139;28;20017;-65
2023/03/03 03:51:47;;;;;;;24.85;13.43;;;;;;;2.91;81.41;102387.38;5034605;28;20386;-65
2023/03/03 03:54:13;;;;;;;25.00;12.18;;;;;;;2.92;81.15;102386.59;5034632;28;20037;-65
2023/03/03 03:56:38;;;;;;;24.17;13.02;;;;;;;2.88;81.33;102385.50;5034737;28;20025;-65
2023/03/03 03:59:05;;;;;;;24.83;13.45;;;;;;;2.89;81.45;102394.22;5034722;28;20029;-65
2023/03/03 04:01:31;;;;;;;26.65;13.23;;;;;;;2.88;81.07;102398.56;5034739;28;20057;-65
2023/03/03 04:03:56;;;;;;;24.52;12.70;;;;;;;2.86;81.09;102400.13;5034609;28;20054;-65
2023/03/03 04:06:22;;;;;;;21.05;12.07;;;;;;;2.81;81.06;102400.63;5034884;28;20432;-65
2023/03/03 04:08:47;;;;;;;23.30;12.35;;;;;;;2.67;81.74;102412.78;5016907;28;20029;-65
2023/03/03 04:11:12;;;;;;;22.85;11.95;;;;;;;2.45;81.97;102416.53;5034363;28;20029;-65
2023/03/03 04:13:38;;;;;;;23.60;12.70;;;;;;;2.47;81.91;102400.97;5034141;28;20391;-65
2023/03/03 04:16:03;;;;;;;27.00;13.13;;;;;;;2.53;81.92;102410.91;5034263;28;20026;-65
2023/03/03 04:18:29;;;;;;;24.10;12.27;;;;;;;2.54;81.95;102404.91;5034516;28;20096;-65
2023/03/03 04:20:54;;;;;;;24.17;12.52;;;;;;;2.61;81.99;102408.03;5034204;28;20102;-65
2023/03/03 04:23:20;;;;;;;23.90;13.13;;;;;;;2.62;81.68;102403.72;5016454;28;20041;-65
2023/03/03 04:25:46;;;;;;;22.45;12.65;;;;;;;2.60;81.79;102405.31;5034164;28;20083;-65
2023/03/03 04:28:12;;;;;;;24.35;12.75;;;;;;;2.59;81.78;102407.03;5034022;28;20026;-65
2023/03/03 04:30:38;;;;;;;25.35;13.20;;;;;;;2.59;82.16;102395.69;5033955;28;20075;-65
2023/03/03 04:33:03;;;;;;;22.30;12.13;;;;;;;2.67;82.12;102402.31;5034224;28;20026;-65
2023/03/03 04:35:29;;;;;;;23.85;12.95;;;;;;;2.71;81.79;102404.34;5033938;28;20029;-65
2023/03/03 04:37:54;;;;;;;24.80;12.27;;;;;;;2.76;81.38;102416.00;5033700;28;20041;-65
2023/03/03 04:40:20;;;;;;;25.05;12.80;;;;;;;2.69;81.38;102400.72;5033931;28;20033;-65
2023/03/03 04:42:45;;;;;;;24.27;12.68;;;;;;;2.79;81.44;102412.69;5033958;28;20038;-65
2023/03/03 04:45:11;;;;;;;21.63;11.52;;;;;;;2.84;81.86;102409.59;5033690;28;20387;-65
2023/03/03 04:47:36;;;;;;;23.20;12.60;;;;;;;2.79;81.53;102404.88;5033695;28;20029;-65
2023/03/03 04:50:02;;;;;;;24.17;12.75;;;;;;;2.72;81.65;102412.28;5015328;28;20022;-65
2023/03/03 04:52:28;;;;;;;24.50;12.20;;;;;;;2.80;81.98;102415.41;5033613;28;20021;-65
2023/03/03 04:54:53;;;;;;;22.80;12.35;;;;;;;2.88;81.86;102411.59;5033811;28;20021;-65
2023/03/03 04:57:19;;;;;;;21.92;12.68;;;;;;;2.88;81.03;102409.00;5033562;28;20484;-65
2023/03/03 04:59:44;;;;;;;25.35;13.27;;;;;;;2.84;80.67;102401.75;5033562;28;20471;-65
2023/03/03 05:02:11;;;;;;;27.83;13.82;;;;;;;2.76;81.02;102421.22;5033532;28;20029;-65
2023/03/03 05:04:37;;;;;;;29.50;14.80;;;;;;;2.69;81.36;102414.66;5033572;28;20091;-65
2023/03/03 05:07:03;;;;;;;24.00;13.10;;;;;;;2.62;82.00;102414.16;5033693;28;20025;-65
2023/03/03 05:09:28;;;;;;;25.08;14.32;;;;;;;2.63;82.13;102408.13;5033745;28;20025;-65
2023/03/03 05:11:54;;;;;;;25.55;14.00;;;;;;;2.64;81.85;102410.84;5034711;28;20022;-65
2023/03/03 05:14:19;;;;;;;29.08;13.70;;;;;;;2.69;82.02;102409.44;5033832;28;20033;-65
2023/03/03 05:16:45;;;;;;;28.20;13.93;;;;;;;2.78;81.67;102406.53;5033450;28;20033;-65
2023/03/03 05:19:10;;;;;;;24.92;13.32;;;;;;;2.84;81.44;102416.50;5033256;28;20096;-65
2023/03/03 05:21:36;;;;;;;25.10;12.85;;;;;;;2.81;81.81;102421.53;5033325;28;20025;-65
2023/03/03 05:24:01;;;;;;;24.77;13.07;;;;;;;2.82;82.06;102419.00;5033232;28;20472;-65
2023/03/03 05:26:27;;;;;;;27.13;12.65;;;;;;;2.84;82.14;102422.63;5033033;28;20017;-65
2023/03/03 05:28:52;;;;;;;25.55;12.85;;;;;;;2.86;81.91;102417.50;5033355;28;20021;-65
2023/03/03 05:31:17;;;;;;;24.27;12.40;;;;;;;2.87;82.14;102419.31;5032899;28;20021;-65
2023/03/03 05:33:43;;;;;;;24.38;12.18;;;;;;;2.85;82.20;102427.06;5015711;28;20079;-65
2023/03/03 05:36:08;;;;;;;23.98;13.32;;;;;;;2.84;82.49;102427.84;5033057;28;20057;-65
2023/03/03 05:38:34;;;;;;;26.58;13.43;;;;;;;2.83;82.31;102431.28;5032759;28;20046;-65
2023/03/03 05:40:59;;;;;;;24.85;12.27;;;;;;;2.84;82.34;102425.25;5032962;28;20475;-65
2023/03/03 05:43:24;;;;;;;25.17;12.82;;;;;;;2.88;82.65;102422.03;5015291;28;20037;-66
2023/03/03 05:45:55;;;;;;;27.48;13.35;;;;;;;2.86;82.46;102415.78;5032989;28;20037;-65
2023/03/03 05:48:20;;;;;;;24.35;12.75;;;;;;;2.91;82.32;102427.47;5032809;28;20031;-65
2023/03/03 05:50:45;;;;;;;24.35;12.25;;;;;;;3.00;82.16;102422.88;5031631;28;20105;-65
2023/03/03 05:53:11;;;;;;;22.65;12.68;;;;;;;3.06;81.99;102422.34;5015022;28;20484;-65
2023/03/03 05:55:36;;;;;;;24.45;12.70;;;;;;;3.10;82.12;102426.97;5033017;28;20112;-65
2023/03/03 05:58:01;;;;;;;24.05;12.35;;;;;;;3.12;81.28;102427.97;5032888;28;20033;-65
2023/03/03 06:00:27;;;;;;;22.42;12.15;;;;;;;3.16;81.24;102422.16;5032908;28;20065;-65
2023/03/03 06:02:52;;;;;;;25.52;13.27;;;;;;;3.20;80.97;102420.66;5037094;28;20076;-65
2023/03/03 06:05:18;;;;;;;23.58;11.32;;;;;;;3.23;80.62;102424.38;5036798;28;20053;-65
2023/03/03 06:07:43;;;;;;;26.23;12.38;;;;;;;3.24;81.04;102420.94;5036999;28;20026;-65
2023/03/03 06:10:09;;;;;;;26.83;12.93;;;;;;;3.20;80.99;102426.78;5036900;28;20494;-65
2023/03/03 06:12:36;;;;;;;22.20;12.40;;;;;;;3.22;80.93;102427.78;5036744;28;20116;-65
2023/03/03 06:15:01;;;;;;;23.20;12.05;;;;;;;3.23;80.84;102431.31;5036893;28;20121;-65
2023/03/03 06:17:27;;;;;;;23.25;12.35;;;;;;;3.26;80.27;102435.03;5036498;28;20104;-65
2023/03/03 06:19:52;;;;;;;24.50;12.30;;;;;;;3.22;80.71;102440.84;5036510;28;20034;-65
2023/03/03 06:22:18;;;;;;;23.38;11.80;;;;;;;3.24;80.37;102440.94;5036351;28;20026;-65
2023/03/03 06:24:43;;;;;;;23.05;11.93;;;;;;;3.23;80.38;102444.38;5036699;28;20045;-65
2023/03/03 06:27:09;;;;;;;24.98;12.68;;;;;;;3.20;80.46;102452.00;5036736;28;20041;-65
2023/03/03 06:29:34;;;;;;;26.48;13.10;;;;;;;3.23;80.53;102445.28;5036287;28;20051;-65
2023/03/03 06:32:00;;;;;;;25.70;13.25;;;;;;;3.20;80.61;102455.50;5036376;28;20033;-65
2023/03/03 06:34:25;;;;;;;26.33;12.90;;;;;;;3.22;80.54;102458.25;5036351;28;20037;-65
2023/03/03 06:36:51;;;;;;;25.13;13.05;;;;;;;3.25;80.99;102450.59;5036471;28;20088;-65
2023/03/03 06:39:16;;;;;;;24.83;13.40;;;;;;;3.25;80.83;102461.03;5036020;28;20463;-65
2023/03/03 06:41:42;;;;;;;27.88;13.15;;;;;;;3.25;80.45;102464.59;5036257;28;20507;-65
2023/03/03 06:44:07;;;;;;;26.05;12.77;;;;;;;3.23;80.33;102471.41;5036394;28;20029;-65
2023/03/03 06:46:33;;;;;;;26.77;13.45;;;;;;;3.23;80.56;102476.63;5036033;28;20034;-65
2023/03/03 06:48:58;;;;;;;26.42;13.52;;;;;;;3.21;80.64;102479.91;5036046;28;20392;-65
2023/03/03 06:51:29;;;;;;;25.48;12.65;;;;;;;3.21;80.66;102486.06;5035781;28;20030;-65
2023/03/03 06:53:56;;;;;;;22.95;11.75;;;;;;;3.24;80.73;102487.97;5036215;28;20029;-65
2023/03/03 06:56:25;;;;;;;26.15;12.48;;;;;;;3.29;80.97;102491.78;5035838;28;20117;-65
2023/03/03 06:58:57;;;;;;;27.25;13.52;;;;;;;3.25;81.25;102492.38;5036074;28;20049;-64
2023/03/03 07:01:22;;;;;;;28.77;14.20;;;;;;;3.19;80.52;102492.88;5035660;28;20108;-65
2023/03/03 07:03:47;;;;;;;24.77;11.88;;;;;;;3.22;80.97;102492.19;5035759;28;20112;-65
2023/03/03 07:06:24;;;;;;;26.35;12.70;;;;;;;3.22;81.01;102503.56;5036027;28;20026;-65
2023/03/03 07:08:51;;;;;;;26.98;12.45;;;;;;;3.22;80.62;102493.09;5035760;28;20022;-65
2023/03/03 07:11:20;;;;;;;26.17;12.50;;;;;;;3.30;80.93;102492.69;5035283;28;20101;-65
2023/03/03 07:13:50;;;;;;;23.90;12.13;;;;;;;3.34;81.24;102497.31;5035584;28;20048;-65
2023/03/03 07:16:18;;;;;;;23.80;11.88;;;;;;;3.40;81.36;102500.34;5035457;28;20032;-64
2023/03/03 07:19:02;;;;;;;25.27;12.30;;;;;;;3.44;80.33;102489.31;5035502;28;20475;-65
2023/03/03 07:21:35;;;;;;;27.30;12.38;;;;;;;3.45;80.17;102488.50;5035264;28;20034;-66
2023/03/03 07:24:23;;;;;;;27.60;13.77;;;;;;;3.50;80.07;102501.03;5035600;28;20112;-65
2023/03/03 07:26:48;;;;;;;25.08;12.68;;;;;;;3.58;81.10;102508.50;5035679;28;20033;-66
2023/03/03 07:29:32;;;;;;;29.83;13.63;;;;;;;3.64;80.78;102493.19;5035496;28;20030;-65
2023/03/03 07:31:58;;;;;;;25.05;13.15;;;;;;;3.69;79.97;102503.19;5035358;28;20029;-65
2023/03/03 07:34:29;;;;;;;29.52;13.40;;;;;;;3.72;80.16;102510.28;5035184;28;20052;-65
2023/03/03 07:37:04;;;;;;;28.73;13.82;;;;;;;3.74;80.18;102508.69;5035259;28;20098;-65
2023/03/03 07:39:38;;;;;;;30.85;13.52;;;;;;;3.73;80.66;102510.41;5034752;28;20389;-65
2023/03/03 07:42:27;;;;;;;27.35;12.68;;;;;;;3.79;79.95;102512.50;5034930;28;20431;-66
2023/03/03 07:44:58;;;;;;;23.17;12.15;;;;;;;3.83;79.43;102522.38;5035293;28;20033;-66
2023/03/03 07:47:30;;;;;;;24.20;11.68;;;;;;;3.87;79.73;102513.91;5034918;28;20040;-66
2023/03/03 07:50:00;;;;;;;28.70;12.70;;;;;;;3.89;78.78;102522.75;5035144;28;20029;-66
2023/03/03 07:53:01;;;;;;;26.27;12.75;;;;;;;3.97;78.97;102525.88;5034602;28;20026;-66
2023/03/03 07:55:32;;;;;;;27.73;12.23;;;;;;;3.94;78.57;102523.03;4954679;29;20063;-66
2023/03/03 07:58:16;;;;;;;25.33;12.38;;;;;;;3.96;78.96;102524.06;5021652;28;20440;-66
2023/03/03 08:00:41;;;;;;;24.70;12.80;;;;;;;3.99;79.12;102525.16;5034733;28;20033;-65
2023/03/03 08:03:15;;;;;;;29.58;12.82;;;;;;;4.03;78.98;102530.59;5035270;28;20025;-66
2023/03/03 08:05:51;;;;;;;27.85;13.25;;;;;;;3.97;79.42;102536.31;5017815;28;20056;-66
2023/03/03 08:08:35;;;;;;;31.30;14.23;;;;;;;3.92;79.25;102538.66;5035820;28;20087;-66
2023/03/03 08:11:03;;;;;;;31.17;13.82;;;;;;;3.89;78.50;102542.75;5037063;28;20029;-66
2023/03/03 08:13:28;;;;;;;27.85;12.60;;;;;;;3.86;78.14;102538.25;5034954;28;20478;-65
2023/03/03 08:16:03;;;;;;;26.05;11.85;;;;;;;3.89;78.16;102542.75;5034390;28;20483;-65
2023/03/03 08:18:50;;;;;;;25.35;11.63;;;;;;;3.87;77.65;102549.63;5034520;28;20025;-66
2023/03/03 08:21:19;;;;;;;24.50;11.77;;;;;;;3.81;78.28;102549.19;5034257;28;20083;-66
2023/03/03 08:23:45;;;;;;;24.23;11.52;;;;;;;3.85;78.33;102549.50;5033501;28;20060;-65
2023/03/03 08:26:12;;;;;;;26.17;12.73;;;;;;;3.91;77.68;102549.00;5034214;28;20025;-66
2023/03/03 08:28:38;;;;;;;25.13;13.45;;;;;;;3.98;77.45;102552.13;5034204;28;20099;-66
2023/03/03 08:31:04;;;;;;;26.42;13.07;;;;;;;4.06;77.65;102550.00;5034187;28;20031;-66
2023/03/03 08:33:30;;;;;;;26.85;13.30;;;;;;;4.14;77.39;102561.84;5034029;28;20026;-65
2023/03/03 08:35:55;;;;;;;31.30;12.30;;;;;;;4.14;77.90;102556.63;5034088;28;20037;-65
2023/03/03 08:38:21;;;;;;;26.17;13.73;;;;;;;4.17;77.17;102563.78;5033726;28;20049;-67
2023/03/03 08:40:47;;;;;;;31.83;12.95;;;;;;;4.17;77.60;102563.78;5033796;28;20550;-66
2023/03/03 08:43:16;;;;;;;27.80;13.05;;;;;;;4.16;77.40;102565.50;5033738;28;20104;-65
2023/03/03 08:45:45;;;;;;;29.52;13.43;;;;;;;4.12;77.92;102560.88;5033990;28;20029;-65
2023/03/03 08:48:11;;;;;;;26.48;13.50;;;;;;;4.10;79.55;102566.78;5034088;28;20025;-65
2023/03/03 08:50:37;;;;;;;27.67;13.20;;;;;;;4.07;79.87;102569.19;5033538;28;20464;-65
2023/03/03 08:53:04;;;;;;;29.00;13.65;;;;;;;4.05;79.90;102573.44;5033734;28;20048;-65
2023/03/03 08:55:30;;;;;;;28.58;13.23;;;;;;;4.03;79.62;102577.69;5015893;28;20551;-65
2023/03/03 08:57:55;;;;;;;26.17;12.93;;;;;;;4.04;79.81;102572.53;5033664;28;20117;-65
2023/03/03 09:00:21;;;;;;;26.02;12.93;;;;;;;4.06;79.05;102590.94;5033749;28;20053;-65
2023/03/03 09:02:48;;;;;;;27.40;11.90;;;;;;;4.15;78.87;102579.34;5033688;28;20033;-65
2023/03/03 09:05:13;;;;;;;25.20;12.65;;;;;;;4.22;79.40;102580.66;5033400;28;20022;-65
2023/03/03 09:07:40;;;;;;;23.55;11.98;;;;;;;4.26;79.22;102586.19;5033365;28;20075;-65
2023/03/03 09:10:06;;;;;;;22.73;11.63;;;;;;;4.27;77.51;102590.63;5033430;28;20502;-65
2023/03/03 09:12:38;;;;;;;20.65;10.90;;;;;;;4.31;76.67;102583.88;5033226;28;20478;-65
2023/03/03 09:15:12;;;;;;;22.00;10.77;;;;;;;4.39;76.34;102577.41;5033314;28;20112;-65
2023/03/03 09:17:37;;;;;;;22.23;11.45;;;;;;;4.45;76.98;102580.44;5033283;28;20032;-65
2023/03/03 09:20:37;;;;;;;23.15;12.32;;;;;;;4.60;76.59;102587.44;5033287;28;20025;-65
2023/03/03 09:23:27;;;;;;;23.90;11.80;;;;;;;4.73;76.52;102576.91;4990394;28;20112;-65
2023/03/03 09:25:53;;;;;;;21.00;10.48;;;;;;;4.77;76.11;102586.78;5033227;28;20091;-64
2023/03/03 09:28:26;;;;;;;20.67;10.57;;;;;;;4.82;76.01;102592.28;5033187;28;20033;-65
2023/03/03 09:30:53;;;;;;;20.58;10.68;;;;;;;4.85;75.77;102593.41;5033003;28;20026;-66
2023/03/03 09:33:39;;;;;;;19.25;10.13;;;;;;;4.87;75.65;102590.88;5033164;28;20100;-64
2023/03/03 09:36:23;;;;;;;22.75;10.05;;;;;;;4.92;75.14;102597.28;5033234;28;20032;-66
2023/03/03 09:38:49;;;;;;;21.25;10.18;;;;;;;4.83;74.41;102591.47;5032962;28;20057;-65
2023/03/03 09:41:45;;;;;;;20.15;10.50;;;;;;;4.80;74.95;102597.44;5033192;28;20029;-63
2023/03/03 09:44:48;;;;;;;21.63;11.00;;;;;;;4.81;75.25;102595.72;5032970;28;20099;-64
2023/03/03 09:47:32;;;;;;;;;;;;;;;4.92;74.96;102597.28;5033186;28;20025;-65
2023/03/03 09:50:39;;;;;;;19.05;9.43;;;;;;;4.99;73.65;102607.34;5033139;28;19909;-64
2023/03/03 09:53:10;;;;;;;18.38;9.38;;;;;;;4.88;73.12;102609.31;5032800;28;20487;-65
2023/03/03 09:55:42;;;;;;;19.45;9.60;;;;;;;4.95;73.36;102610.56;5032808;28;20084;-65
2023/03/03 09:58:23;;;;;;;18.77;8.68;;;;;;;5.10;72.88;102608.00;5032820;28;20467;-66
2023/03/03 10:01:15;;;;;;;19.15;9.20;;;;;;;5.21;73.03;102606.94;5032622;28;20025;-65
2023/03/03 10:03:46;;;;;;;15.98;8.20;;;;;;;5.29;72.22;102603.06;5032492;28;20025;-66
2023/03/03 10:06:20;;;;;;;19.05;9.77;;;;;;;5.41;72.94;102606.44;5032869;28;20021;-65
2023/03/03 10:09:00;;;;;;;20.55;9.55;;;;;;;5.54;72.05;102610.69;5033731;28;20092;-65
2023/03/03 10:12:03;;;;;;;19.30;9.85;;;;;;;5.63;72.14;102608.59;5036455;28;20025;-64
2023/03/03 10:14:40;;;;;;;19.67;8.98;;;;;;;5.74;71.65;102617.13;5032970;28;20021;-65
2023/03/03 10:17:21;;;;;;;19.45;9.25;;;;;;;5.72;71.52;102611.75;5032600;28;20021;-67
2023/03/03 10:20:02;;;;;;;19.17;8.27;;;;;;;5.69;71.59;102611.56;5015034;28;20043;-65
2023/03/03 10:22:45;;;;;;;16.73;8.23;;;;;;;5.68;71.01;102607.16;5032669;28;20060;-66
2023/03/03 10:25:29;;;;;;;15.48;8.68;;;;;;;5.73;71.30;102617.91;5032431;28;20484;-66
2023/03/03 10:28:13;;;;;;;18.55;9.20;;;;;;;5.70;70.23;102605.53;5032552;28;20026;-66
2023/03/03 10:31:19;;;;;;;16.85;8.48;;;;;;;5.76;70.92;102611.13;5032111;28;20108;-68
2023/03/03 10:33:48;;;;;;;15.77;9.10;;;;;;;5.83;70.76;102604.53;5014746;28;20033;-67
2023/03/03 10:36:32;;;;;;;16.67;8.52;;;;;;;5.94;70.25;102613.03;5032532;28;20108;-67
2023/03/03 10:39:12;;;;;;;16.33;8.60;;;;;;;5.92;69.92;102610.34;5032232;28;20049;-66
2023/03/03 10:41:58;;;;;;;13.85;8.05;;;;;;;5.97;70.33;102613.22;5032820;28;20116;-65
2023/03/03 10:44:47;;;;;;;17.52;9.55;;;;;;;6.11;69.58;102612.28;5032780;28;20426;-67
2023/03/03 10:47:29;;;;;;;15.50;8.02;;;;;;;6.25;69.40;102607.81;5033559;28;20479;-66
2023/03/03 10:50:13;;;;;;;19.23;8.80;;;;;;;6.42;69.60;102599.16;5035947;28;20490;-66
2023/03/03 10:52:43;;;;;;;15.32;8.60;;;;;;;6.57;68.41;102607.00;5036020;28;20033;-65
2023/03/03 10:55:25;;;;;;;15.10;8.35;;;;;;;6.78;67.78;102607.28;5036059;28;20036;-66
2023/03/03 10:58:08;;;;;;;17.75;9.18;;;;;;;7.14;67.28;102607.44;5036008;28;20040;-66
2023/03/03 11:01:01;;;;;;;18.23;9.05;;;;;;;7.52;66.33;102601.56;5035612;28;20041;-64
2023/03/03 11:03:33;;;;;;;17.35;8.60;;;;;;;7.69;64.40;102608.56;5035557;28;20450;-65
2023/03/03 11:06:33;;;;;;;16.33;8.73;;;;;;;7.75;65.40;102610.59;5035693;28;20112;-66
2023/03/03 11:09:19;;;;;;;17.02;9.52;;;;;;;7.72;65.08;102606.09;5035425;28;20065;-66
2023/03/03 11:11:54;;;;;;;15.25;9.10;;;;;;;7.75;64.38;102607.97;5035535;28;20033;-65
2023/03/03 11:14:32;;;;;;;16.65;8.98;;;;;;;7.89;64.93;102604.31;5035703;28;20429;-68
2023/03/03 11:17:25;;;;;;;17.63;9.40;;;;;;;7.96;64.64;102597.63;5035647;28;20022;-66
2023/03/03 11:19:59;;;;;;;15.80;9.23;;;;;;;7.90;64.08;102603.50;5035402;28;20053;-68
2023/03/03 11:22:46;;;;;;;17.00;9.05;;;;;;;7.81;64.10;102602.13;5035211;28;20056;-70
2023/03/03 11:25:33;;;;;;;14.82;8.90;;;;;;;7.68;64.31;102603.25;5035488;28;20460;-66
2023/03/03 11:28:35;;;;;;;18.38;8.98;;;;;;;7.65;65.98;102596.09;5035355;28;20049;-66
2023/03/03 11:31:09;;;;;;;17.60;9.07;;;;;;;7.76;65.31;102594.00;5035259;28;20409;-68
2023/03/03 11:33:44;;;;;;;19.98;9.27;;;;;;;7.84;64.74;102590.03;5017353;28;20026;-66
2023/03/03 11:36:31;;;;;;;19.50;9.40;;;;;;;7.96;64.65;102587.97;5035175;28;20390;-66